Flight Track Log - Related Links

Times and Time Zones

All times are in EDT time to prevent confusion due to time zone crossing. See the AAL1805 flight status page for this flight to view local times or setup timezone preferences in your user account.

Time Position Orientation Groundspeed Altitude Reporting Facility
EDT Latitude Longitude Course Direction KTS MPH feet Rate Location/Type
Fri 03:25:57 PM 38.8180 -77.0330 172° South 167 192 1,500  Level FlightAware ADS-B
Fri 03:26:27 PM 38.7900 -77.0290 174° South 211 243 2,100 1,467 Climbing FlightAware ADS-B
Fri 03:26:42 PM 38.7760 -77.0210 156° South 235 270 2,600 1,920 Climbing FlightAware ADS-B
Fri 03:26:52 PM 38.7680 -77.0100 133° Southeast 248 285 2,900 2,250 Climbing FlightAware ADS-B
Fri 03:27:22 PM 38.7430 -76.9760 133° Southeast 268 308 4,100 2,800 Climbing FlightAware ADS-B
Fri 03:27:52 PM 38.7170 -76.9400 133° Southeast 276 318 5,700 3,150 Climbing FlightAware ADS-B
Fri 03:28:02 PM 38.7100 -76.9310 135° Southeast 276 318 6,200 2,400 Climbing FlightAware ADS-B
Fri 03:28:47 PM 38.6720 -76.8790 133° Southeast 297 342 7,900 2,471 Climbing FlightAware ADS-B
Fri 03:29:27 PM 38.6370 -76.8310 133° Southeast 304 350 9,700 2,259 Climbing FlightAware ADS-B
Fri 03:30:12 PM 38.5920 -76.7710 134° Southeast 339 390 11,100 1,600 Climbing FlightAware ADS-B
Fri 03:30:42 PM 38.5580 -76.7310 137° Southeast 360 414 11,700 1,867 Climbing FlightAware ADS-B
Fri 03:30:57 PM 38.5350 -76.7190 158° South 361 415 12,500 3,046 Climbing FlightAware ADS-B
Fri 03:31:47 PM 38.4370 -76.7070 175° South 378 435 15,000 2,905 Climbing FlightAware ADS-B
Fri 03:32:32 PM 38.3570 -76.6980 175° South 392 451 17,100 2,820 Climbing FlightAware ADS-B
Fri 03:33:27 PM 38.2570 -76.6850 174° South 395 455 19,700 2,467 Climbing FlightAware ADS-B
Fri 03:34:02 PM 38.1960 -76.6780 175° South 405 466 20,800 2,475 Climbing FlightAware ADS-B
Fri 03:34:47 PM 38.1070 -76.6650 173° South 410 472 23,000 2,800 Climbing FlightAware ADS-B
Fri 03:35:32 PM 38.0220 -76.6540 174° South 404 465 25,000 2,280 Climbing FlightAware ADS-B
Fri 03:36:27 PM 37.9300 -76.6420 174° South 406 467 26,800 2,040 Climbing FlightAware ADS-B
Fri 03:37:12 PM 37.8490 -76.6310 174° South 406 467 28,400 2,047 Climbing FlightAware ADS-B
Fri 03:37:52 PM 37.7650 -76.6200 174° South 409 471 29,700 1,200 Climbing FlightAware ADS-B
Fri 03:38:32 PM 37.6860 -76.6100 174° South 414 476 30,000 212 Climbing FlightAware ADS-B
Fri 03:39:17 PM 37.6000 -76.5990 174° South 414 476 30,000  Level FlightAware ADS-B
Fri 03:40:02 PM 37.5220 -76.5890 174° South 415 478 30,000  Level FlightAware ADS-B
Fri 03:40:42 PM 37.4460 -76.5790 174° South 417 480 30,000  Level FlightAware ADS-B
Fri 03:41:32 PM 37.3410 -76.5650 174° South 417 480 30,000  Level FlightAware ADS-B
Fri 03:42:22 PM 37.2450 -76.5520 174° South 418 481 30,000  Level FlightAware ADS-B
Fri 03:43:17 PM 37.1490 -76.4880 152° Southeast 432 497 30,000  Level FlightAware ADS-B
Fri 03:43:57 PM 37.0880 -76.4340 145° Southeast 432 497 30,000  Level FlightAware ADS-B
Fri 03:44:37 PM 37.0190 -76.3720 144° Southeast 432 497 30,000  Level FlightAware ADS-B
Fri 03:45:37 PM 36.9280 -76.2930 145° Southeast 432 497 30,000  Level FlightAware ADS-B
Fri 03:46:17 PM 36.8720 -76.2440 145° Southeast 432 497 30,000  Level FlightAware ADS-B
Fri 03:46:57 PM 36.8170 -76.1960 145° Southeast 432 497 30,000  Level FlightAware ADS-B
Fri 03:47:37 PM 36.7610 -76.1470 145° Southeast 432 497 30,000  Level FlightAware ADS-B
Fri 03:48:17 PM 36.7050 -76.0980 145° Southeast 432 497 30,000  Level FlightAware ADS-B
Fri 03:49:07 PM 36.6360 -76.0380 145° Southeast 432 497 30,000  Level FlightAware ADS-B
Fri 03:49:47 PM 36.5800 -75.9890 145° Southeast 432 497 30,000  Level FlightAware ADS-B
Fri 03:50:27 PM 36.5250 -75.9410 145° Southeast 432 497 30,000  Level FlightAware ADS-B
Fri 03:51:07 PM 36.4690 -75.8920 145° Southeast 432 497 30,000  Level FlightAware ADS-B
Fri 03:51:47 PM 36.4130 -75.8440 145° Southeast 432 497 30,000  Level FlightAware ADS-B
Fri 03:52:37 PM 36.3440 -75.7830 145° Southeast 432 497 30,000  Level FlightAware ADS-B
Fri 03:53:17 PM 36.2880 -75.7350 145° Southeast 432 497 30,000  Level FlightAware ADS-B
Fri 03:53:57 PM 36.2320 -75.6870 145° Southeast 432 497 30,000  Level FlightAware ADS-B
Fri 03:54:37 PM 36.1770 -75.6380 144° Southeast 432 497 30,000  Level FlightAware ADS-B
Fri 03:54:58 PM 35.9456 -76.7953 144° Southeast 397 457 30,000  Level Washington Center
Fri 03:55:59 PM 35.8428 -76.8450 201° Southwest 397 457 30,000  Level Washington Center
Fri 03:56:59 PM 35.7400 -76.8919 200° South 397 457 30,000  Level Washington Center
Fri 03:57:56 PM 35.6331 -76.9389 200° South 397 457 30,000  Level Washington Center
Fri 03:58:57 PM 35.5283 -76.9806 198° South 397 457 30,000  Level Washington Center
Fri 03:59:58 PM 35.4214 -77.0194 197° South 397 457 30,000  Level Washington Center
Fri 04:00:59 PM 35.3186 -77.0583 197° South 402 463 30,000  Level Washington Center
Fri 04:01:59 PM 35.2097 -77.0969 196° South 402 463 30,000  Level Washington Center
Fri 04:02:57 PM 35.1092 -77.1358 198° South 402 463 30,000  Level Washington Center
Fri 04:03:58 PM 35.0022 -77.1744 196° South 402 463 30,000  Level Washington Center
Fri 04:04:59 PM 34.8975 -77.2103 196° South 402 463 30,000  Level Washington Center
Fri 04:05:57 PM 34.8031 -77.2489 199° South 397 457 30,000  Level Washington Center
Fri 04:06:57 PM 34.6961 -77.2872 196° South 397 457 30,000  Level Washington Center
Fri 04:07:58 PM 34.5892 -77.3253 196° South 402 463 30,000  Level Washington Center
Fri 04:14:02 PM 33.9110 -77.5690 196° South 414 476 30,000  Level FlightAware ADS-B
Fri 04:14:42 PM 33.8450 -77.5930 197° South 415 478 30,000  Level FlightAware ADS-B
Fri 04:16:07 PM 33.6820 -77.6510 196° South 417 480 30,000  Level FlightAware ADS-B
Fri 04:16:52 PM 33.6090 -77.6760 196° South 418 481 30,000  Level FlightAware ADS-B
Fri 04:17:32 PM 33.5450 -77.6980 196° South 418 481 30,000  Level FlightAware ADS-B
Fri 04:18:12 PM 33.4820 -77.7200 196° South 418 481 30,000  Level FlightAware ADS-B
Fri 04:18:52 PM 33.4190 -77.7420 196° South 418 481 30,000  Level FlightAware ADS-B
Fri 04:19:32 PM 33.3560 -77.7630 196° South 418 481 30,000  Level FlightAware ADS-B
Fri 04:20:12 PM 33.2930 -77.7850 196° South 418 481 30,000  Level FlightAware ADS-B
Fri 04:21:02 PM 33.2140 -77.8120 196° South 418 481 30,000  Level FlightAware ADS-B
Fri 04:21:37 PM 33.0680 -77.8670 198° South 424 488 30,000  Level FlightAware ADS-B
Fri 04:22:22 PM 32.9930 -77.8930 196° South 424 488 30,000  Level FlightAware ADS-B
Fri 04:23:12 PM 32.9130 -77.9200 196° South 424 488 30,000  Level FlightAware ADS-B
Fri 04:23:52 PM 32.8480 -77.9420 196° South 424 488 30,000  Level FlightAware ADS-B
Fri 04:24:32 PM 32.7840 -77.9640 196° South 424 488 30,000  Level FlightAware ADS-B
Fri 04:25:12 PM 32.7200 -77.9860 196° South 424 488 30,000  Level FlightAware ADS-B
Fri 04:25:52 PM 32.6560 -78.0080 196° South 424 488 30,000  Level FlightAware ADS-B
Fri 04:26:42 PM 32.5760 -78.0350 196° South 424 488 30,000  Level FlightAware ADS-B
Fri 04:27:22 PM 32.5120 -78.0570 196° South 424 488 30,000  Level FlightAware ADS-B
Fri 04:28:02 PM 32.4480 -78.0790 196° South 424 488 30,000  Level FlightAware ADS-B
Fri 04:28:42 PM 32.3840 -78.1010 196° South 424 488 30,000  Level FlightAware ADS-B
Fri 04:29:22 PM 32.3200 -78.1220 195° South 424 488 30,000  Level FlightAware ADS-B
Fri 04:30:12 PM 32.2390 -78.1490 196° South 424 488 30,000  Level FlightAware ADS-B
Fri 04:30:52 PM 32.1750 -78.1710 196° South 424 488 30,000  Level FlightAware ADS-B
Fri 04:31:32 PM 32.1110 -78.1930 196° South 424 488 30,000  Level FlightAware ADS-B
Fri 04:31:51 PM 31.8986 -78.2728 196° South 439 505 30,000  Level Jacksonville Center
Fri 04:32:51 PM 31.7853 -78.3103 196° South 428 493 30,000  Level Jacksonville Center
Fri 04:33:51 PM 31.6717 -78.3500 197° South 428 493 30,000  Level Jacksonville Center
Fri 04:34:51 PM 31.5603 -78.3872 196° South 428 493 30,000  Level Jacksonville Center
Fri 04:35:51 PM 31.4469 -78.4267 197° South 433 498 30,000  Level Jacksonville Center
Fri 04:36:51 PM 31.3356 -78.4636 196° South 427 491 30,000  Level Jacksonville Center
Fri 04:37:51 PM 31.2222 -78.5031 197° South 419 482 30,000  Level Jacksonville Center
Fri 04:38:51 PM 31.1106 -78.5372 195° South 418 481 30,000  Level Jacksonville Center
Fri 04:39:51 PM 30.9886 -78.5744 195° South 429 494 30,000  Level Jacksonville Center
Fri 04:40:51 PM 30.8836 -78.6156 199° South 429 494 30,000  Level Jacksonville Center
Fri 04:41:51 PM 30.7722 -78.6519 196° South 422 486 30,000  Level Jacksonville Center
Fri 04:42:51 PM 30.6564 -78.6886 195° South 415 478 30,000  Level Jacksonville Center
Fri 04:44:58 PM 30.4369 -78.7319 190° South 420 483 30,000  Level Miami Center
Fri 04:45:58 PM 30.3200 -78.7514 188° South 426 490 30,000  Level Miami Center
Fri 04:46:58 PM 30.2050 -78.7711 188° South 431 496 30,000  Level Miami Center
Fri 04:47:58 PM 30.0858 -78.7906 188° South 431 496 30,000  Level Miami Center
Fri 04:48:58 PM 29.9708 -78.8172 191° South 424 488 30,000  Level Miami Center
Fri 04:49:58 PM 29.8558 -78.8389 189° South 424 488 30,000  Level Miami Center
Fri 04:50:58 PM 29.7347 -78.8536 186° South 433 498 30,000  Level Miami Center
Fri 04:51:58 PM 29.6197 -78.8753 189° South 433 498 30,000  Level Miami Center
Fri 04:52:58 PM 29.5028 -78.8875 185° South 426 490 30,000  Level Miami Center
Fri 04:53:58 PM 29.3817 -78.9019 186° South 433 498 30,000  Level Miami Center
Fri 04:54:58 PM 29.2686 -78.9189 187° South 433 498 30,000  Level Miami Center
Fri 04:55:58 PM 29.1497 -78.9331 186° South 433 498 30,000  Level Miami Center
Fri 04:56:58 PM 29.0200 -78.9475 186° South 426 490 30,000  Level Miami Center
Fri 04:57:58 PM 28.9008 -78.9642 187° South 433 498 30,000  Level Miami Center
Fri 04:58:58 PM 28.7839 -78.9808 187° South 433 498 30,000  Level Miami Center
Fri 05:04:48 PM 28.1110 -79.1260 187° South 428 493 30,000  Level FlightAware ADS-B
Fri 05:05:38 PM 28.0180 -79.1530 194° South 419 482 30,000  Level FlightAware ADS-B
Fri 05:06:23 PM 27.9290 -79.1780 194° South 428 493 30,000  Level FlightAware ADS-B
Fri 05:07:03 PM 27.8640 -79.1960 194° South 428 493 30,000 -3,029 Level FlightAware ADS-B
Fri 05:08:08 PM 27.7230 -79.2370 194° South 429 494 24,700 -3,429 Descending FlightAware ADS-B
Fri 05:08:48 PM 27.6440 -79.2590 194° South 435 501 24,000 -467 Descending FlightAware ADS-B
Fri 05:09:38 PM 27.5350 -79.2900 194° South 449 517 24,000  Level FlightAware ADS-B
Fri 05:10:18 PM 27.4560 -79.3130 194° South 449 517 24,000  Level FlightAware ADS-B
Fri 05:10:58 PM 27.3790 -79.3340 194° South 450 518 24,000  Level FlightAware ADS-B
Fri 05:11:43 PM 27.2990 -79.3570 194° South 450 518 24,000  Level FlightAware ADS-B
Fri 05:12:23 PM 27.2050 -79.3830 194° South 451 519 24,000  Level FlightAware ADS-B
Fri 05:13:23 PM 27.0920 -79.4150 194° South 445 512 24,000 -1,022 Level FlightAware ADS-B
Fri 05:14:38 PM 26.9370 -79.4640 196° South 431 496 21,700 -1,600 Descending FlightAware ADS-B
Fri 05:15:23 PM 26.8470 -79.4920 196° South 431 496 20,800 -1,267 Descending FlightAware ADS-B
Fri 05:16:08 PM 26.7540 -79.5200 195° South 425 489 19,800 -1,341 Descending FlightAware ADS-B
Fri 05:16:48 PM 26.6790 -79.5430 195° South 419 482 18,900 -1,280 Descending FlightAware ADS-B
Fri 05:17:23 PM 26.6180 -79.5720 203° Southwest 412 474 18,200 -1,129 Descending FlightAware ADS-B
Fri 05:18:13 PM 26.5450 -79.6160 208° Southwest 378 435 17,300 -1,062 Descending FlightAware ADS-B
Fri 05:19:33 PM 26.4620 -79.7400 233° Southwest 363 418 15,900 -986 Descending FlightAware ADS-B
Fri 05:20:33 PM 26.4080 -79.8340 237° Southwest 362 417 15,000 -1,292 Descending FlightAware ADS-B
Fri 05:21:43 PM 26.3340 -79.9300 229° Southwest 340 391 13,100 -1,665 Descending FlightAware ADS-B
Fri 05:23:08 PM 26.2310 -80.0200 218° Southwest 321 369 10,700 -1,239 Descending FlightAware ADS-B
Fri 05:24:18 PM 26.1290 -80.0490 194° South 319 367 9,900 -643 Descending FlightAware ADS-B
Fri 05:25:28 PM 26.0340 -80.0750 194° South 282 325 9,200 -857 Descending FlightAware ADS-B
Fri 05:26:38 PM 25.9540 -80.1160 205° Southwest 268 308 7,900 -1,040 Descending FlightAware ADS-B
Fri 05:26:43 PM 25.9510 -80.1230 245° Southwest 269 310 7,900  Level FlightAware ADS-B
Fri 05:27:48 PM 25.9430 -80.2100 264° West 239 275 7,900 -622 Level FlightAware ADS-B
Fri 05:28:58 PM 25.9380 -80.2910 266° West 220 253 6,500 -1,432 Descending FlightAware ADS-B
Fri 05:30:23 PM 25.9310 -80.3870 265° West 222 255 4,200 -1,394 Descending FlightAware ADS-B
Fri 05:31:33 PM 25.8750 -80.4130 203° Southwest 193 222 2,900 -1,244 Descending FlightAware ADS-B
Fri 05:32:38 PM 25.8340 -80.3720 138° Southeast 185 213 1,400 -1,309 Descending FlightAware ADS-B
Fri 05:33:23 PM 25.8160 -80.3340 118° Southeast 158 182 500 -1,040 Descending FlightAware ADS-B
Fri 05:33:53 PM 25.8050 -80.3140 121° Southeast 153 176 100 -800 Descending FlightAware ADS-B
Fri 05:34:18 PM 25.7960 -80.2970 120° Southeast 147 169 -240 Descending FlightAware ADS-B

Login

Don't have an account? Register now (free) for customized features, flight alerts, and more!